Time;durP1;ratioP1;P1;durP2;ratioP2;P2;SDS_P1;SDS_P2;PMS_P1;PMS_P2;Temp;Humidity;BMP_temperature;BMP_pressure;BME280_temperature;BME280_humidity;BME280_pressure;Samples;Min_cycle;Max_cycle;Signal;HPM_P1;HPM_P2
2021/12/22 00:01:06;;;;;;;8.05;5.78;;;;;;;2.10;51.85;102197.78;4985558;28;20035;-84
2021/12/22 00:03:32;;;;;;;9.73;6.00;;;;;;;2.09;51.60;102196.03;4985872;28;20499;-84
2021/12/22 00:05:57;;;;;;;11.27;6.07;;;;;;;2.13;52.14;102197.91;4990286;28;20058;-84
2021/12/22 00:08:27;;;;;;;16.73;7.10;;;;;;;1.98;52.55;102203.34;4989408;28;21059;-85
2021/12/22 00:10:52;;;;;;;12.70;7.07;;;;;;;1.61;53.85;102192.56;4985317;28;20042;-84
2021/12/22 00:13:18;;;;;;;9.85;6.05;;;;;;;1.96;52.50;102193.84;4987364;28;20504;-85
2021/12/22 00:15:43;;;;;;;12.18;5.10;;;;;;;2.18;52.57;102190.38;4985228;28;20053;-85
2021/12/22 00:18:09;;;;;;;13.35;5.22;;;;;;;2.06;52.86;102191.66;5000911;28;20038;-84
2021/12/22 00:20:35;;;;;;;12.25;5.85;;;;;;;2.19;52.08;102184.41;4985213;28;20030;-84
2021/12/22 00:23:00;;;;;;;11.95;5.25;;;;;;;2.26;52.09;102181.28;4986906;28;20120;-85
2021/12/22 00:25:26;;;;;;;11.70;4.63;;;;;;;2.37;52.40;102182.50;4986336;28;20066;-84
2021/12/22 00:27:54;;;;;;;12.77;6.10;;;;;;;2.10;52.05;102180.72;4982249;28;20038;-85
2021/12/22 00:30:20;;;;;;;11.20;5.45;;;;;;;2.21;52.53;102178.53;4983283;28;20034;-84
2021/12/22 00:32:54;;;;;;;9.02;5.25;;;;;;;2.38;51.88;102176.56;4986486;28;20446;-84
2021/12/22 00:35:24;;;;;;;9.15;4.70;;;;;;;2.23;52.44;102178.59;4985283;28;20117;-84
2021/12/22 00:37:49;;;;;;;11.68;5.05;;;;;;;2.20;51.68;102171.69;4976915;28;20050;-84
2021/12/22 00:40:15;;;;;;;7.78;5.38;;;;;;;2.13;51.83;102172.25;4990566;28;20046;-84
2021/12/22 00:42:40;;;;;;;10.93;5.07;;;;;;;2.18;52.21;102164.75;4988118;28;20038;-84
2021/12/22 00:45:06;;;;;;;11.88;5.18;;;;;;;2.28;51.75;102167.69;4988622;28;20019;-84
2021/12/22 00:47:32;;;;;;;8.32;5.07;;;;;;;2.23;51.41;102165.78;4995552;28;20027;-85
2021/12/22 00:49:59;;;;;;;9.02;4.75;;;;;;;1.92;52.11;102159.56;4989030;28;20042;-85
2021/12/22 00:52:26;;;;;;;12.68;5.05;;;;;;;1.88;52.69;102169.66;4984695;28;20498;-84
2021/12/22 00:54:51;;;;;;;10.52;5.13;;;;;;;1.78;52.82;102165.00;4983602;28;20039;-85
2021/12/22 00:57:17;;;;;;;11.25;4.90;;;;;;;2.02;51.58;102169.34;4981573;28;20042;-85
2021/12/22 00:59:45;;;;;;;9.35;4.57;;;;;;;2.24;52.26;102159.84;4988348;28;20157;-85
2021/12/22 01:02:11;;;;;;;10.65;4.88;;;;;;;2.26;52.31;102159.06;4983659;28;20042;-85
2021/12/22 01:04:38;;;;;;;10.25;5.13;;;;;;;2.22;52.21;102158.91;4987637;28;20540;-84
2021/12/22 01:07:04;;;;;;;7.97;4.78;;;;;;;2.22;51.58;102157.22;4983295;28;20077;-85
2021/12/22 01:09:29;;;;;;;9.23;4.82;;;;;;;2.23;51.38;102164.09;4986565;28;20065;-84
2021/12/22 01:11:55;;;;;;;11.48;5.10;;;;;;;1.81;52.38;102163.44;4985721;28;20090;-85
2021/12/22 01:14:21;;;;;;;10.43;5.22;;;;;;;2.03;51.94;102167.66;4980115;28;20030;-84
2021/12/22 01:16:50;;;;;;;10.25;5.22;;;;;;;2.08;51.59;102169.56;4984901;28;20056;-85
2021/12/22 01:19:24;;;;;;;8.90;4.72;;;;;;;2.17;52.07;102160.44;4981253;28;20041;-85
2021/12/22 01:22:01;;;;;;;8.13;5.20;;;;;;;2.12;52.03;102162.81;4980568;28;20037;-84
2021/12/22 01:24:34;;;;;;;11.75;5.35;;;;;;;1.80;52.29;102169.34;4983980;28;20811;-84
2021/12/22 01:27:09;;;;;;;10.38;5.57;;;;;;;1.78;53.09;102173.56;4985705;28;20022;-84
2021/12/22 01:29:38;;;;;;;;;;;;;;;1.95;52.63;102164.78;4991093;28;20038;-84
2021/12/22 01:32:08;;;;;;;7.65;4.63;;;;;;;1.64;52.88;102176.44;4986147;28;20017;-85
2021/12/22 01:34:33;;;;;;;12.27;5.45;;;;;;;1.91;52.69;102164.66;4986615;28;20042;-85
2021/12/22 01:36:58;;;;;;;11.18;6.47;;;;;;;1.91;52.30;102168.06;4982699;28;20462;-85
2021/12/22 01:39:24;;;;;;;12.32;6.20;;;;;;;1.82;52.71;102175.41;4992738;28;20046;-85
2021/12/22 01:41:50;;;;;;;11.07;6.20;;;;;;;1.83;52.99;102169.47;4986226;28;20049;-85
2021/12/22 01:44:34;;;;;;;12.02;5.63;;;;;;;1.93;52.29;102175.81;4986913;28;20030;-85
2021/12/22 01:49:51;;;;;;;11.65;5.32;;;;;;;2.01;51.91;102175.25;4986326;28;20513;-85
2021/12/22 01:52:18;;;;;;;10.90;5.35;;;;;;;2.17;51.68;102174.13;4981794;28;20128;-85
2021/12/22 01:54:50;;;;;;;10.90;4.70;;;;;;;2.26;50.80;102182.16;4986748;28;20049;-85
2021/12/22 01:57:17;;;;;;;10.23;4.70;;;;;;;1.88;52.53;102192.72;4989175;28;20468;-85
2021/12/22 01:59:44;;;;;;;7.28;4.50;;;;;;;1.94;51.85;102187.81;4984672;28;20065;-85
2021/12/22 02:02:12;;;;;;;11.93;4.95;;;;;;;2.08;52.21;102177.25;4986964;28;20041;-85
2021/12/22 02:04:38;;;;;;;12.18;4.55;;;;;;;1.98;51.82;102175.16;4986378;28;20053;-85
2021/12/22 02:07:05;;;;;;;8.50;4.45;;;;;;;2.00;51.69;102182.91;4988108;28;20046;-85
2021/12/22 02:12:02;;;;;;;8.85;4.35;;;;;;;2.07;51.31;102195.13;4971762;28;20041;-84
2021/12/22 02:14:27;;;;;;;7.15;4.72;;;;;;;1.95;51.82;102192.97;4985247;28;20019;-85
2021/12/22 02:16:53;;;;;;;9.20;4.88;;;;;;;2.00;51.88;102200.84;4994239;28;20062;-84
2021/12/22 02:19:18;;;;;;;8.85;4.32;;;;;;;1.88;52.31;102197.84;4992199;28;20113;-85
2021/12/22 02:21:50;;;;;;;9.27;4.35;;;;;;;1.68;52.61;102203.88;4988531;28;20046;-85
2021/12/22 02:24:16;;;;;;;9.40;4.13;;;;;;;1.60;52.89;102207.84;4988178;28;20546;-85
2021/12/22 02:27:00;;;;;;;9.27;4.30;;;;;;;1.87;52.89;102206.31;4984783;28;20185;-85
2021/12/22 02:29:35;;;;;;;7.32;4.55;;;;;;;1.74;52.33;102196.44;4989660;28;20108;-85
2021/12/22 02:34:41;;;;;;;11.73;4.60;;;;;;;1.92;51.73;102192.88;4991171;28;20508;-85
2021/12/22 02:37:12;;;;;;;;;;;;;;;2.03;51.66;102199.25;4987220;28;20066;-84
2021/12/22 02:39:46;;;;;;;9.82;4.18;;;;;;;1.99;52.30;102197.41;4989613;28;19924;-85
2021/12/22 02:42:13;;;;;;;11.38;5.13;;;;;;;1.88;52.61;102198.69;4983142;28;20023;-85
2021/12/22 02:44:38;;;;;;;13.23;5.35;;;;;;;1.93;51.88;102197.19;4987314;28;20487;-85
2021/12/22 02:47:21;;;;;;;9.10;4.47;;;;;;;1.43;52.76;102197.84;4992892;28;20076;-85
2021/12/22 02:49:48;;;;;;;8.43;5.03;;;;;;;1.85;51.40;102201.13;4990339;28;20041;-85
2021/12/22 02:52:13;;;;;;;12.48;4.80;;;;;;;1.80;51.88;102194.09;4985859;28;20125;-85
2021/12/22 02:54:49;;;;;;;8.93;4.80;;;;;;;1.89;51.58;102195.31;4985692;28;20487;-85
2021/12/22 02:57:36;;;;;;;7.32;4.35;;;;;;;1.69;52.46;102192.84;4988169;28;20034;-85
2021/12/22 03:02:39;;;;;;;10.95;5.15;;;;;;;2.01;52.05;102187.19;4985980;28;20027;-85
2021/12/22 03:05:05;;;;;;;10.57;5.10;;;;;;;1.66;52.39;102179.91;4982959;28;20042;-85
2021/12/22 03:07:31;;;;;;;9.75;5.00;;;;;;;1.62;52.24;102178.03;4983977;28;20057;-85
2021/12/22 03:10:14;;;;;;;10.15;5.15;;;;;;;1.48;52.83;102175.84;4983516;28;20042;-86
2021/12/22 03:12:40;;;;;;;9.90;4.65;;;;;;;1.52;52.19;102169.16;4986922;28;20133;-85
2021/12/22 03:15:09;;;;;;;8.85;4.40;;;;;;;1.67;52.36;102168.84;4985247;28;20828;-85
2021/12/22 03:17:35;;;;;;;10.98;5.47;;;;;;;1.71;51.77;102170.69;4983141;28;20049;-85
2021/12/22 03:20:01;;;;;;;9.73;4.75;;;;;;;1.72;51.78;102169.88;4987334;28;20644;-85
2021/12/22 03:22:27;;;;;;;10.20;5.45;;;;;;;1.79;52.54;102161.63;4988980;28;20415;-85
2021/12/22 03:24:53;;;;;;;11.43;4.97;;;;;;;1.91;51.74;102154.38;4988628;28;20046;-85
2021/12/22 03:27:20;;;;;;;9.32;5.05;;;;;;;1.65;52.66;102155.97;4994396;28;20117;-85
2021/12/22 03:29:46;;;;;;;9.50;4.70;;;;;;;1.88;51.94;102157.69;4986709;28;20030;-85
2021/12/22 03:32:12;;;;;;;11.57;5.25;;;;;;;1.49;52.02;102152.00;4987650;28;20045;-85
2021/12/22 03:34:39;;;;;;;11.90;5.28;;;;;;;1.51;51.95;102154.59;4982932;28;20034;-85
2021/12/22 03:37:05;;;;;;;10.45;5.55;;;;;;;1.58;51.99;102150.59;4985923;28;20125;-85
2021/12/22 03:39:32;;;;;;;7.95;4.57;;;;;;;1.60;51.61;102149.81;4973372;28;20049;-85
2021/12/22 03:41:58;;;;;;;10.68;5.35;;;;;;;1.50;52.56;102148.59;4997926;28;20073;-85
2021/12/22 03:44:24;;;;;;;13.77;5.28;;;;;;;1.47;52.22;102140.78;4984832;28;20061;-85
2021/12/22 03:46:51;;;;;;;11.50;4.90;;;;;;;1.63;52.07;102152.50;4989799;28;20042;-85
2021/12/22 03:49:17;;;;;;;11.18;4.57;;;;;;;1.79;52.23;102153.94;4990109;28;20085;-86
2021/12/22 03:51:43;;;;;;;9.57;4.30;;;;;;;1.75;51.75;102150.38;4992092;28;20558;-85
2021/12/22 03:54:11;;;;;;;8.18;4.70;;;;;;;1.07;52.74;102152.00;4989758;28;20034;-85
2021/12/22 03:56:37;;;;;;;7.82;4.57;;;;;;;1.53;52.82;102155.50;4989418;28;20030;-85
2021/12/22 03:59:03;;;;;;;12.25;5.00;;;;;;;1.27;53.11;102161.34;4986943;28;20035;-85
2021/12/22 04:01:28;;;;;;;10.27;4.70;;;;;;;1.69;52.07;102160.41;4985699;28;20069;-85
2021/12/22 04:03:58;;;;;;;10.52;4.82;;;;;;;1.54;52.26;102154.72;4984121;28;20064;-85
2021/12/22 04:06:24;;;;;;;10.07;5.05;;;;;;;0.92;53.16;102157.41;4987319;28;20399;-85
2021/12/22 04:08:49;;;;;;;8.57;4.72;;;;;;;1.33;52.86;102154.78;4991044;28;20034;-85
2021/12/22 04:11:15;;;;;;;10.65;4.35;;;;;;;1.45;52.32;102152.69;4985233;28;20038;-85
2021/12/22 04:13:40;;;;;;;11.05;4.93;;;;;;;1.22;52.69;102150.94;4986360;28;20575;-85
2021/12/22 04:16:05;;;;;;;9.55;4.95;;;;;;;1.43;52.05;102150.88;4985299;28;20109;-85
2021/12/22 04:18:31;;;;;;;11.60;4.85;;;;;;;1.39;52.39;102152.44;4987127;28;20400;-85
2021/12/22 04:20:56;;;;;;;10.25;5.35;;;;;;;1.08;52.71;102154.63;4983179;28;20034;-85
2021/12/22 04:23:22;;;;;;;10.88;4.75;;;;;;;1.46;53.55;102149.31;4990468;28;20033;-85
2021/12/22 04:25:47;;;;;;;12.00;4.78;;;;;;;1.69;52.02;102151.84;4988423;28;20030;-85
2021/12/22 04:28:14;;;;;;;10.30;4.50;;;;;;;1.67;52.16;102153.50;4980039;28;20093;-85
2021/12/22 04:30:45;;;;;;;9.02;5.00;;;;;;;1.49;52.04;102156.25;4983248;28;20042;-85
2021/12/22 04:33:10;;;;;;;9.65;4.40;;;;;;;1.70;52.15;102153.59;5004272;28;20045;-85
2021/12/22 04:35:36;;;;;;;10.05;4.75;;;;;;;1.29;52.85;102169.97;4986356;28;20037;-85
2021/12/22 04:38:02;;;;;;;6.90;4.25;;;;;;;1.25;52.62;102166.41;4987243;28;20030;-85
2021/12/22 04:40:27;;;;;;;6.68;3.97;;;;;;;1.44;52.90;102165.41;4983607;28;20039;-85
2021/12/22 04:42:53;;;;;;;8.88;5.20;;;;;;;1.09;53.11;102165.72;4983070;28;20100;-85
2021/12/22 04:45:19;;;;;;;6.80;4.35;;;;;;;0.85;53.31;102163.06;4997719;28;20038;-85
2021/12/22 04:47:46;;;;;;;9.00;4.25;;;;;;;1.28;52.74;102163.97;4989714;28;20046;-85
2021/12/22 04:50:17;;;;;;;5.80;4.10;;;;;;;1.25;52.49;102174.09;4985952;28;20034;-85
2021/12/22 04:52:56;;;;;;;9.55;4.55;;;;;;;1.25;52.71;102180.88;4985787;28;20037;-85
2021/12/22 04:55:25;;;;;;;9.15;4.97;;;;;;;0.99;53.81;102173.03;4992950;28;20038;-84
2021/12/22 04:57:52;;;;;;;7.78;4.63;;;;;;;1.27;52.14;102179.25;4980994;28;20088;-85
2021/12/22 05:00:19;;;;;;;7.72;4.60;;;;;;;1.09;53.08;102186.19;4984955;28;20122;-84
2021/12/22 05:02:45;;;;;;;17.80;6.70;;;;;;;0.97;53.86;102174.66;4983901;28;20036;-84
2021/12/22 05:05:11;;;;;;;16.58;8.40;;;;;;;1.42;52.63;102173.03;4993459;28;20499;-84
2021/12/22 05:07:36;;;;;;;22.90;12.15;;;;;;;1.28;53.63;102181.00;4988857;28;20031;-85
2021/12/22 05:10:03;;;;;;;30.77;14.90;;;;;;;1.29;52.65;102183.59;4989334;28;20815;-84
2021/12/22 05:12:29;;;;;;;27.23;13.88;;;;;;;1.37;52.92;102184.81;4985262;28;20654;-84
2021/12/22 05:14:54;;;;;;;20.23;10.43;;;;;;;1.49;52.63;102184.41;4986764;28;20034;-84
2021/12/22 05:17:26;;;;;;;15.38;7.65;;;;;;;1.40;52.66;102179.81;4982077;28;20042;-84
2021/12/22 05:19:51;;;;;;;10.73;5.63;;;;;;;1.29;53.58;102170.81;4990726;28;20454;-84
2021/12/22 05:22:17;;;;;;;10.75;4.97;;;;;;;1.53;52.33;102164.06;4985822;28;20074;-84
2021/12/22 05:24:42;;;;;;;7.88;4.68;;;;;;;1.45;51.96;102180.84;4990905;28;20050;-85
2021/12/22 05:27:11;;;;;;;9.00;4.30;;;;;;;1.30;52.08;102179.38;4983315;28;20408;-84
2021/12/22 05:29:37;;;;;;;10.13;5.15;;;;;;;1.29;52.20;102186.16;4972633;28;20039;-84
2021/12/22 05:32:04;;;;;;;7.50;4.35;;;;;;;0.73;53.80;102181.34;4988209;28;20085;-84
2021/12/22 05:34:29;;;;;;;10.25;4.68;;;;;;;1.29;53.13;102185.31;4987026;28;20046;-85
2021/12/22 05:36:55;;;;;;;9.20;4.45;;;;;;;1.23;52.93;102183.38;4985675;28;20045;-84
2021/12/22 05:39:21;;;;;;;9.48;4.05;;;;;;;0.94;53.62;102181.34;4985086;28;20042;-85
2021/12/22 05:41:46;;;;;;;14.73;5.15;;;;;;;1.38;52.33;102175.41;4995456;28;20017;-85
2021/12/22 05:44:12;;;;;;;8.27;4.30;;;;;;;1.12;54.12;102171.84;4990081;28;20613;-84
2021/12/22 05:46:37;;;;;;;8.93;4.00;;;;;;;1.35;52.22;102170.19;4990195;28;20110;-84
2021/12/22 05:49:03;;;;;;;7.53;4.93;;;;;;;1.30;52.25;102170.00;4987380;28;20046;-84
2021/12/22 05:51:32;;;;;;;7.07;4.43;;;;;;;1.46;52.00;102163.81;4988997;28;20046;-84
2021/12/22 05:53:57;;;;;;;12.63;5.45;;;;;;;1.44;52.92;102168.84;4990621;28;20030;-85
2021/12/22 05:56:23;;;;;;;10.18;5.07;;;;;;;1.62;51.82;102163.53;5002325;28;20120;-84
2021/12/22 05:58:48;;;;;;;12.38;4.82;;;;;;;1.64;51.93;102156.81;4986815;28;20054;-84
2021/12/22 06:01:14;;;;;;;8.27;4.40;;;;;;;1.58;51.69;102162.56;4989592;28;20066;-84
2021/12/22 06:03:39;;;;;;;8.88;5.05;;;;;;;1.34;51.71;102153.97;4987834;28;20068;-84
2021/12/22 06:06:05;;;;;;;9.82;4.82;;;;;;;1.50;51.69;102152.84;4992651;28;20669;-84
2021/12/22 06:08:30;;;;;;;9.40;4.90;;;;;;;1.40;52.93;102148.22;4990956;28;20774;-84
2021/12/22 06:10:56;;;;;;;8.40;4.80;;;;;;;1.43;52.15;102150.88;4988865;28;20102;-84
2021/12/22 06:13:57;;;;;;;;;;;;;;;;;;;;;
2021/12/22 06:20:44;;;;;;;14.65;5.80;;;;;;;1.14;52.30;102151.44;4897665;28;20043;-84
2021/12/22 06:23:45;;;;;;;8.68;4.40;;;;;;;1.26;53.29;102145.09;4910685;28;20156;-84
2021/12/22 06:26:27;;;;;;;12.73;5.05;;;;;;;1.31;53.27;102155.53;4918668;28;20048;-84
2021/12/22 06:29:16;;;;;;;10.05;4.78;;;;;;;1.57;52.75;102159.94;4913201;28;20101;-84
2021/12/22 06:31:41;;;;;;;11.27;4.65;;;;;;;1.35;52.77;102158.25;4915087;28;20051;-84
2021/12/22 06:34:07;;;;;;;10.52;5.28;;;;;;;1.61;53.16;102156.69;4913879;28;20040;-83
2021/12/22 06:36:32;;;;;;;10.98;6.07;;;;;;;1.51;52.80;102163.16;4907230;28;20048;-83
2021/12/22 06:39:08;;;;;;;11.57;6.18;;;;;;;1.48;52.85;102172.41;4917622;28;20032;-84
2021/12/22 06:41:34;;;;;;;8.35;4.57;;;;;;;1.64;52.53;102166.19;4910924;28;20024;-84
2021/12/22 06:44:05;;;;;;;14.80;5.78;;;;;;;1.36;53.26;102165.13;4995205;28;20041;-84
2021/12/22 06:46:30;;;;;;;11.43;6.28;;;;;;;1.33;52.92;102156.44;5008017;28;20048;-84
2021/12/22 06:49:10;;;;;;;11.68;5.80;;;;;;;1.21;53.45;102164.53;4993889;28;20034;-85
2021/12/22 06:51:36;;;;;;;12.93;5.93;;;;;;;1.36;52.77;102149.78;5012323;28;20042;-84
2021/12/22 06:54:02;;;;;;;12.00;5.40;;;;;;;1.53;52.17;102151.28;5006216;28;20037;-84
2021/12/22 06:56:28;;;;;;;13.43;5.93;;;;;;;1.45;52.88;102152.69;5009035;28;20056;-84
2021/12/22 06:59:06;;;;;;;9.35;4.97;;;;;;;1.67;52.18;102151.81;5011141;28;20125;-84
2021/12/22 07:01:34;;;;;;;9.68;4.55;;;;;;;1.80;51.60;102153.09;5022945;28;20061;-83
2021/12/22 07:03:59;;;;;;;10.52;4.70;;;;;;;1.70;52.23;102153.59;5009608;28;20030;-84
2021/12/22 07:06:25;;;;;;;10.27;5.13;;;;;;;1.67;51.81;102154.38;5008191;28;20436;-83
2021/12/22 07:08:51;;;;;;;10.18;5.05;;;;;;;1.69;51.57;102152.72;5008615;28;20041;-83
2021/12/22 07:11:17;;;;;;;8.20;4.57;;;;;;;1.03;53.08;102160.38;5007071;28;20038;-84
2021/12/22 07:13:43;;;;;;;12.93;4.70;;;;;;;1.38;52.74;102155.81;5025435;28;20049;-83
2021/12/22 07:16:08;;;;;;;9.20;4.95;;;;;;;1.30;52.76;102157.22;5007622;28;20038;-84
2021/12/22 07:18:34;;;;;;;10.35;5.28;;;;;;;1.45;52.05;102160.34;5008222;28;20407;-84
2021/12/22 07:21:00;;;;;;;13.15;5.28;;;;;;;1.42;52.69;102159.38;5008505;28;20025;-84
2021/12/22 07:23:26;;;;;;;9.73;4.63;;;;;;;1.10;52.86;102155.56;5007593;28;20042;-84
2021/12/22 07:25:51;;;;;;;12.35;4.97;;;;;;;1.22;52.44;102156.06;5006680;28;20633;-84
2021/12/22 07:28:17;;;;;;;10.48;5.28;;;;;;;1.46;52.20;102151.88;5025783;28;20083;-84
2021/12/22 07:30:42;;;;;;;10.70;4.55;;;;;;;1.61;51.71;102150.69;5019913;28;20084;-84
2021/12/22 07:33:08;;;;;;;12.27;5.65;;;;;;;1.49;52.35;102146.00;5006059;28;20075;-84
2021/12/22 07:35:41;;;;;;;11.43;6.53;;;;;;;1.35;52.33;102148.00;5008415;28;20497;-84
2021/12/22 07:38:24;;;;;;;8.45;5.15;;;;;;;1.46;52.12;102144.19;4923278;28;20047;-84
2021/12/22 07:40:51;;;;;;;11.85;4.93;;;;;;;1.63;52.50;102138.81;4991563;28;20037;-85
2021/12/22 08:14:01;;;;;;;13.68;6.20;;;;;;;1.62;52.99;102147.31;4850342;29;20158;-84
2021/12/22 08:24:15;;;;;;;;;;;;;;;;;;;;;
2021/12/22 08:26:59;;;;;;;11.48;5.55;;;;;;;1.44;54.22;102156.03;4932489;28;20775;-84
2021/12/22 08:30:05;;;;;;;9.95;5.32;;;;;;;1.89;53.66;102156.00;4885952;28;20060;-84
2021/12/22 08:33:01;;;;;;;;;;;;;;;;;;;;;
2021/12/22 08:43:33;;;;;;;8.88;5.75;;;;;;;1.38;55.10;102143.00;4895869;28;20135;-85
2021/12/22 08:46:54;;;;;;;8.68;5.53;;;;;;;1.55;55.21;102139.41;4930926;28;20520;-85
2021/12/22 08:49:40;;;;;;;11.38;6.07;;;;;;;1.96;54.54;102130.66;5001326;28;20045;-85
2021/12/22 08:52:56;;;;;;;15.63;6.03;;;;;;;2.15;53.78;102132.16;4990677;28;20056;-84
2021/12/22 09:17:29;;;;;;;;;;;;;;;;;;;;;
2021/12/22 09:27:16;;;;;;;;;;;;;;;;;;;;;
2021/12/22 09:36:56;;;;;;;12.73;6.65;;;;;;;2.28;55.40;102121.53;4928730;28;20128;-84
2021/12/22 09:43:57;;;;;;;13.60;5.78;;;;;;;2.08;55.96;102135.34;4845345;29;20067;-84
2021/12/22 09:50:34;;;;;;;12.55;5.32;;;;;;;2.30;55.08;102129.28;4882814;29;20048;-84
2021/12/22 09:57:16;;;;;;;11.00;5.47;;;;;;;2.45;54.82;102117.84;4946055;28;20104;-84
2021/12/22 10:14:44;;;;;;;12.00;5.57;;;;;;;2.77;54.37;102100.94;4741925;29;20055;-84
2021/12/22 10:17:37;;;;;;;14.52;6.25;;;;;;;2.82;54.44;102093.38;4773779;29;20033;-84
2021/12/22 10:20:42;;;;;;;10.93;5.50;;;;;;;2.95;54.28;102086.09;4861894;28;20537;-84
2021/12/22 10:23:36;;;;;;;9.52;5.50;;;;;;;3.09;53.23;102082.28;4870197;28;20710;-84
2021/12/22 10:26:26;;;;;;;11.30;5.68;;;;;;;3.18;53.06;102073.97;4951648;28;20525;-84
2021/12/22 10:29:06;;;;;;;16.25;5.72;;;;;;;2.94;54.00;102070.66;4946434;28;20040;-84
2021/12/22 10:32:13;;;;;;;12.48;6.32;;;;;;;3.00;54.13;102073.44;4945781;28;20048;-84
2021/12/22 10:38:17;;;;;;;14.27;5.70;;;;;;;3.14;53.18;102057.59;4941747;28;20043;-84
2021/12/22 10:41:13;;;;;;;11.57;6.40;;;;;;;3.33;53.13;102061.59;4955944;28;20050;-84
2021/12/22 10:43:52;;;;;;;;;;;;;;;3.28;53.26;102067.44;4940554;28;20028;-84
2021/12/22 10:47:04;;;;;;;9.85;5.28;;;;;;;3.24;53.86;102058.75;4965623;28;20332;-84
2021/12/22 10:49:44;;;;;;;13.07;6.75;;;;;;;3.28;53.57;102058.00;4953337;28;20066;-84
2021/12/22 10:52:38;;;;;;;12.48;6.40;;;;;;;3.15;54.23;102059.38;4944247;28;20066;-84
2021/12/22 10:55:12;;;;;;;12.27;7.10;;;;;;;3.25;54.54;102056.22;4936386;28;20101;-84
2021/12/22 10:58:12;;;;;;;10.98;6.32;;;;;;;3.39;53.45;102051.50;4946814;28;20043;-84
2021/12/22 11:00:43;;;;;;;12.82;6.28;;;;;;;3.31;53.55;102040.13;4949160;28;20039;-84
2021/12/22 11:03:18;;;;;;;11.95;6.43;;;;;;;3.29;53.33;102040.91;4947063;28;20054;-84
2021/12/22 11:06:02;;;;;;;12.52;6.60;;;;;;;3.41;53.82;102044.69;4956604;28;20078;-84
2021/12/22 11:08:57;;;;;;;13.65;6.60;;;;;;;3.41;53.64;102042.13;4944596;28;20067;-84
2021/12/22 11:11:59;;;;;;;10.35;5.95;;;;;;;3.43;53.29;102037.91;4969724;28;20039;-84
2021/12/22 11:14:35;;;;;;;12.00;5.50;;;;;;;3.62;52.71;102036.72;4948215;28;20397;-84
2021/12/22 11:17:13;;;;;;;13.05;6.22;;;;;;;3.43;52.87;102032.75;4939137;28;21537;-84
2021/12/22 11:19:57;;;;;;;15.05;5.90;;;;;;;3.53;52.57;102034.78;4944468;28;20023;-84
2021/12/22 11:23:04;;;;;;;12.27;6.25;;;;;;;3.46;53.01;102027.72;4952087;28;20073;-84
2021/12/22 11:29:56;;;;;;;;;;;;;;;;;;;;;
2021/12/22 11:36:28;;;;;;;11.32;5.30;;;;;;;3.81;51.31;102031.25;4926308;28;20101;-84
2021/12/22 11:39:27;;;;;;;13.30;5.82;;;;;;;3.64;52.27;102024.78;4940954;28;20039;-84
2021/12/22 11:42:01;;;;;;;10.98;6.00;;;;;;;3.75;51.53;102025.97;4935686;28;20051;-84
2021/12/22 11:44:44;;;;;;;11.40;6.40;;;;;;;3.72;52.44;102019.00;4947482;28;20042;-84
2021/12/22 11:47:23;;;;;;;11.38;5.63;;;;;;;3.41;52.36;102006.16;4939518;28;20039;-84
2021/12/22 11:49:58;;;;;;;9.77;5.85;;;;;;;3.60;51.33;102016.13;4944472;28;20089;-84
2021/12/22 11:52:43;;;;;;;;;;;;;;;3.81;51.42;102006.41;4941150;28;20035;-84
2021/12/22 11:55:19;;;;;;;10.02;5.07;;;;;;;3.76;52.13;101992.56;4950281;28;20532;-84
2021/12/22 11:57:50;;;;;;;13.18;6.18;;;;;;;3.92;50.52;101995.53;4945675;28;20113;-85
2021/12/22 12:00:28;;;;;;;11.00;6.28;;;;;;;3.98;51.27;102003.41;4956783;28;20112;-83
2021/12/22 12:02:56;;;;;;;11.65;6.00;;;;;;;3.93;50.60;101993.00;4966186;28;20177;-84
2021/12/22 12:05:25;;;;;;;11.07;5.85;;;;;;;3.76;51.26;101986.56;4946796;28;20532;-84
2021/12/22 12:07:57;;;;;;;11.75;6.28;;;;;;;3.62;51.50;101980.19;4947623;28;20043;-84
2021/12/22 12:10:35;;;;;;;13.75;5.88;;;;;;;3.85;51.07;101983.34;4948565;28;20027;-84
2021/12/22 12:13:16;;;;;;;10.43;5.28;;;;;;;4.04;50.94;101983.00;4946582;28;20023;-84
2021/12/22 12:21:57;;;;;;;10.45;5.47;;;;;;;4.17;49.80;101954.19;4946652;28;20649;-84
2021/12/22 12:24:40;;;;;;;13.50;6.40;;;;;;;3.95;50.95;101959.63;4948337;28;20035;-84
2021/12/22 12:27:36;;;;;;;10.93;5.38;;;;;;;4.03;51.27;101956.41;4945197;28;20047;-85
2021/12/22 12:30:05;;;;;;;12.52;5.68;;;;;;;4.14;50.94;101949.00;4960074;28;20519;-85
2021/12/22 12:32:39;;;;;;;11.63;5.70;;;;;;;3.86;51.04;101955.13;4958480;28;20042;-85
2021/12/22 12:35:20;;;;;;;9.82;5.28;;;;;;;4.10;51.21;101952.31;4946510;28;20043;-84
2021/12/22 12:38:07;;;;;;;11.82;5.50;;;;;;;3.69;50.77;101952.13;4947342;28;20084;-84
2021/12/22 12:40:57;;;;;;;9.27;5.25;;;;;;;4.31;49.46;101950.28;4948668;28;20104;-85
2021/12/22 12:43:41;;;;;;;10.13;5.35;;;;;;;4.21;49.28;101945.72;4952519;28;20015;-84
2021/12/22 12:46:19;;;;;;;9.93;5.32;;;;;;;4.28;49.76;101945.94;4948528;28;20019;-84
2021/12/22 12:48:45;;;;;;;11.88;5.40;;;;;;;4.20;49.75;101939.72;4949700;28;20043;-84
2021/12/22 12:51:18;;;;;;;15.80;5.53;;;;;;;3.98;50.97;101939.13;4951502;28;20411;-84
2021/12/22 12:53:49;;;;;;;9.70;5.75;;;;;;;4.25;49.68;101944.97;4956458;28;20063;-84
2021/12/22 12:56:17;;;;;;;11.85;5.88;;;;;;;4.13;49.58;101947.25;4961886;28;20118;-85
2021/12/22 12:58:55;;;;;;;8.55;5.22;;;;;;;4.26;49.11;101941.56;4958342;28;20423;-85
2021/12/22 13:01:50;;;;;;;10.70;5.55;;;;;;;4.26;48.96;101937.28;4949244;28;20141;-84
2021/12/22 13:04:34;;;;;;;10.05;5.30;;;;;;;4.33;49.12;101933.16;4947783;28;20043;-85
2021/12/22 13:07:06;;;;;;;10.75;5.40;;;;;;;4.30;48.66;101923.66;4949005;28;20047;-85
2021/12/22 13:09:33;;;;;;;10.80;5.90;;;;;;;4.33;48.67;101918.59;4944758;28;20051;-85
2021/12/22 13:17:29;;;;;;;11.38;5.95;;;;;;;4.22;49.62;101921.75;4941787;29;20139;-85
2021/12/22 13:19:56;;;;;;;15.63;6.10;;;;;;;4.52;48.40;101914.75;4950104;28;20657;-85
2021/12/22 13:22:30;;;;;;;12.15;6.47;;;;;;;4.59;47.95;101906.28;4947635;28;20096;-85
2021/12/22 13:25:10;;;;;;;9.82;5.32;;;;;;;4.41;49.11;101903.31;4946663;28;20407;-85
2021/12/22 13:27:44;;;;;;;13.82;6.20;;;;;;;4.34;50.14;101919.47;4951994;28;20049;-85
2021/12/22 13:30:13;;;;;;;14.55;6.10;;;;;;;4.48;49.48;101905.19;4952997;28;20507;-85
2021/12/22 13:32:53;;;;;;;9.88;4.82;;;;;;;4.52;48.48;101903.56;4948315;28;20122;-85
2021/12/22 13:35:40;;;;;;;12.75;6.05;;;;;;;4.50;48.72;101893.22;4943769;28;21137;-85
2021/12/22 13:38:10;;;;;;;13.43;6.30;;;;;;;4.49;48.72;101903.50;4946115;28;20119;-85
2021/12/22 13:40:35;;;;;;;18.58;6.65;;;;;;;4.50;48.70;101895.81;4949313;28;20035;-85
2021/12/22 13:43:01;;;;;;;15.30;5.90;;;;;;;4.57;48.75;101889.97;4946547;28;20032;-85
2021/12/22 13:45:26;;;;;;;10.98;6.00;;;;;;;4.24;50.56;101902.09;4949300;28;20047;-85
2021/12/22 13:47:52;;;;;;;14.65;7.00;;;;;;;4.23;50.47;101901.22;4946073;28;20093;-85
2021/12/22 13:50:17;;;;;;;14.02;6.85;;;;;;;3.84;51.84;101899.38;4944948;28;20546;-85
2021/12/22 13:52:43;;;;;;;14.18;6.82;;;;;;;4.24;51.34;101894.38;4961445;28;20177;-85
2021/12/22 13:55:09;;;;;;;10.27;5.72;;;;;;;4.00;51.94;101897.22;4951766;28;20027;-85
2021/12/22 13:57:35;;;;;;;12.35;6.75;;;;;;;4.20;52.26;101897.69;4938711;28;20050;-85
2021/12/22 14:00:01;;;;;;;11.43;6.85;;;;;;;4.25;51.10;101883.25;4947324;28;20050;-85
2021/12/22 14:02:35;;;;;;;17.25;8.00;;;;;;;3.99;51.68;101886.91;4947516;28;20067;-85
2021/12/22 14:05:33;;;;;;;12.83;7.07;;;;;;;4.20;52.06;101882.25;4946794;28;20050;-85
2021/12/22 14:07:58;;;;;;;13.30;6.30;;;;;;;4.06;52.00;101881.97;4928645;28;20048;-85
2021/12/22 14:10:29;;;;;;;11.55;6.60;;;;;;;4.19;52.16;101880.53;4948750;28;20076;-85
2021/12/22 14:12:57;;;;;;;12.80;6.43;;;;;;;4.20;52.33;101884.84;4942220;28;20054;-85
2021/12/22 14:15:37;;;;;;;13.07;6.97;;;;;;;4.28;51.44;101878.19;4953098;28;20035;-85
2021/12/22 14:18:03;;;;;;;14.32;6.78;;;;;;;4.16;51.95;101877.91;4946187;28;20031;-85
2021/12/22 14:20:36;;;;;;;14.18;7.03;;;;;;;4.03;51.62;101873.25;4946750;28;20046;-85
2021/12/22 14:23:02;;;;;;;12.95;7.43;;;;;;;3.98;52.14;101872.31;4949020;28;20043;-85
2021/12/22 14:25:31;;;;;;;13.02;7.10;;;;;;;4.13;52.22;101871.00;4949816;28;20035;-85
2021/12/22 14:27:59;;;;;;;13.40;7.68;;;;;;;4.14;51.27;101859.00;4948598;28;20384;-85